Charlotte, North Carolina
Current Conditions -  °F | °C
As of 9:52 PM on Saturday 20 Dec 2014 (Local Time) from KCLT Reporting Station
Overcast Overcast  
Wind Chill: 38°   Ceiling: 2400
Heat Index: 42°   Visibility: 10mi
Dew Point: 34°   Wind: 6mph
Humidity: 73%   Direction: 100°E
Pressure: 30.25"   Gusts: NA
Location:  35.22°N, 80.84°W
Report Text: KCLT 210252Z 10005KT 10SM BKN024 OVC032 06/01 A3025 RMK AO2 SLP245 T00560011 51006
Loading
Personal Weather Stations






























Interactive Weather Map New forecast layout! Learn more

10-Day Weather Forecast

Advertisements
Track Severe Weather on mobile